sensor_id;sensor_type;location;lat;lon;timestamp;P1;durP1;ratioP1;P2;durP2;ratioP2
13163;SDS011;6647;53.688;10.746;2022-07-19T00:00:57;6.38;;;5.13;;
13163;SDS011;6647;53.688;10.746;2022-07-19T00:02:18;8.30;;;5.57;;
13163;SDS011;6647;53.688;10.746;2022-07-19T00:03:39;6.28;;;4.80;;
13163;SDS011;6647;53.688;10.746;2022-07-19T00:04:59;9.10;;;5.82;;
13163;SDS011;6647;53.688;10.746;2022-07-19T00:06:23;5.80;;;5.22;;
13163;SDS011;6647;53.688;10.746;2022-07-19T00:07:44;6.50;;;5.18;;
13163;SDS011;6647;53.688;10.746;2022-07-19T00:09:06;8.05;;;6.18;;
13163;SDS011;6647;53.688;10.746;2022-07-19T00:10:27;7.47;;;5.13;;
13163;SDS011;6647;53.688;10.746;2022-07-19T00:11:48;7.15;;;5.43;;
13163;SDS011;6647;53.688;10.746;2022-07-19T00:13:09;7.28;;;5.90;;
13163;SDS011;6647;53.688;10.746;2022-07-19T00:14:30;7.90;;;5.95;;
13163;SDS011;6647;53.688;10.746;2022-07-19T00:15:51;6.82;;;5.10;;
13163;SDS011;6647;53.688;10.746;2022-07-19T00:17:12;6.07;;;5.38;;
13163;SDS011;6647;53.688;10.746;2022-07-19T00:18:33;6.47;;;5.20;;
13163;SDS011;6647;53.688;10.746;2022-07-19T00:19:54;6.63;;;5.22;;
13163;SDS011;6647;53.688;10.746;2022-07-19T00:21:14;8.05;;;5.80;;
13163;SDS011;6647;53.688;10.746;2022-07-19T00:22:35;7.22;;;5.40;;
13163;SDS011;6647;53.688;10.746;2022-07-19T00:23:56;6.78;;;5.45;;
13163;SDS011;6647;53.688;10.746;2022-07-19T00:25:17;9.63;;;5.60;;
13163;SDS011;6647;53.688;10.746;2022-07-19T00:26:38;8.75;;;6.05;;
13163;SDS011;6647;53.688;10.746;2022-07-19T00:27:59;9.27;;;6.05;;
13163;SDS011;6647;53.688;10.746;2022-07-19T00:29:20;6.78;;;5.55;;
13163;SDS011;6647;53.688;10.746;2022-07-19T00:30:41;7.75;;;5.25;;
13163;SDS011;6647;53.688;10.746;2022-07-19T00:32:02;9.63;;;4.70;;
13163;SDS011;6647;53.688;10.746;2022-07-19T00:33:23;7.35;;;5.32;;
13163;SDS011;6647;53.688;10.746;2022-07-19T00:34:43;8.27;;;5.43;;
13163;SDS011;6647;53.688;10.746;2022-07-19T00:36:05;8.65;;;5.15;;
13163;SDS011;6647;53.688;10.746;2022-07-19T00:37:26;7.18;;;5.32;;
13163;SDS011;6647;53.688;10.746;2022-07-19T00:38:47;7.85;;;5.40;;
13163;SDS011;6647;53.688;10.746;2022-07-19T00:40:08;5.93;;;5.03;;
13163;SDS011;6647;53.688;10.746;2022-07-19T00:41:29;9.38;;;5.70;;
13163;SDS011;6647;53.688;10.746;2022-07-19T00:42:51;5.60;;;4.72;;
13163;SDS011;6647;53.688;10.746;2022-07-19T00:44:12;8.15;;;5.55;;
13163;SDS011;6647;53.688;10.746;2022-07-19T00:45:33;7.32;;;5.25;;
13163;SDS011;6647;53.688;10.746;2022-07-19T00:46:54;9.07;;;5.30;;
13163;SDS011;6647;53.688;10.746;2022-07-19T00:48:15;5.90;;;4.75;;
13163;SDS011;6647;53.688;10.746;2022-07-19T00:49:36;7.10;;;5.10;;
13163;SDS011;6647;53.688;10.746;2022-07-19T00:50:57;7.53;;;6.00;;
13163;SDS011;6647;53.688;10.746;2022-07-19T00:52:18;5.35;;;4.85;;
13163;SDS011;6647;53.688;10.746;2022-07-19T00:53:40;9.10;;;5.38;;
13163;SDS011;6647;53.688;10.746;2022-07-19T00:55:03;6.60;;;5.45;;
13163;SDS011;6647;53.688;10.746;2022-07-19T00:56:25;7.00;;;5.32;;
13163;SDS011;6647;53.688;10.746;2022-07-19T00:57:47;7.70;;;5.78;;
13163;SDS011;6647;53.688;10.746;2022-07-19T00:59:09;7.28;;;5.82;;
13163;SDS011;6647;53.688;10.746;2022-07-19T01:00:32;7.78;;;5.88;;
13163;SDS011;6647;53.688;10.746;2022-07-19T01:01:55;7.78;;;5.35;;
13163;SDS011;6647;53.688;10.746;2022-07-19T01:03:16;6.55;;;5.70;;
13163;SDS011;6647;53.688;10.746;2022-07-19T01:04:38;7.32;;;5.90;;
13163;SDS011;6647;53.688;10.746;2022-07-19T01:05:59;6.82;;;5.50;;
13163;SDS011;6647;53.688;10.746;2022-07-19T01:07:20;7.85;;;5.78;;
13163;SDS011;6647;53.688;10.746;2022-07-19T01:08:41;7.75;;;5.57;;
13163;SDS011;6647;53.688;10.746;2022-07-19T01:10:05;7.97;;;5.80;;
13163;SDS011;6647;53.688;10.746;2022-07-19T01:11:27;9.48;;;5.80;;
13163;SDS011;6647;53.688;10.746;2022-07-19T01:12:48;6.40;;;5.38;;
13163;SDS011;6647;53.688;10.746;2022-07-19T01:14:10;10.23;;;6.18;;
13163;SDS011;6647;53.688;10.746;2022-07-19T01:15:31;7.05;;;5.72;;
13163;SDS011;6647;53.688;10.746;2022-07-19T01:16:51;7.90;;;5.28;;
13163;SDS011;6647;53.688;10.746;2022-07-19T01:18:12;9.13;;;5.80;;
13163;SDS011;6647;53.688;10.746;2022-07-19T01:19:33;8.50;;;6.28;;
13163;SDS011;6647;53.688;10.746;2022-07-19T01:20:54;8.77;;;4.95;;
13163;SDS011;6647;53.688;10.746;2022-07-19T01:22:16;10.35;;;5.68;;
13163;SDS011;6647;53.688;10.746;2022-07-19T01:23:37;7.28;;;5.65;;
13163;SDS011;6647;53.688;10.746;2022-07-19T01:24:58;7.55;;;4.90;;
13163;SDS011;6647;53.688;10.746;2022-07-19T01:26:19;10.20;;;5.75;;
13163;SDS011;6647;53.688;10.746;2022-07-19T01:27:40;7.97;;;5.80;;
13163;SDS011;6647;53.688;10.746;2022-07-19T01:29:03;7.85;;;6.10;;
13163;SDS011;6647;53.688;10.746;2022-07-19T01:30:24;6.60;;;5.30;;
13163;SDS011;6647;53.688;10.746;2022-07-19T01:31:46;7.95;;;6.13;;
13163;SDS011;6647;53.688;10.746;2022-07-19T01:33:07;7.63;;;5.80;;
13163;SDS011;6647;53.688;10.746;2022-07-19T01:34:28;9.27;;;5.75;;
13163;SDS011;6647;53.688;10.746;2022-07-19T01:35:49;7.80;;;5.65;;
13163;SDS011;6647;53.688;10.746;2022-07-19T01:37:10;8.10;;;6.10;;
13163;SDS011;6647;53.688;10.746;2022-07-19T01:38:31;7.82;;;5.65;;
13163;SDS011;6647;53.688;10.746;2022-07-19T01:39:52;5.65;;;4.95;;
13163;SDS011;6647;53.688;10.746;2022-07-19T01:41:16;6.68;;;5.50;;
13163;SDS011;6647;53.688;10.746;2022-07-19T01:42:37;12.77;;;5.40;;
13163;SDS011;6647;53.688;10.746;2022-07-19T01:43:59;7.40;;;5.90;;
13163;SDS011;6647;53.688;10.746;2022-07-19T01:45:20;6.10;;;5.13;;
13163;SDS011;6647;53.688;10.746;2022-07-19T01:46:41;6.78;;;5.57;;
13163;SDS011;6647;53.688;10.746;2022-07-19T01:48:02;8.60;;;6.10;;
13163;SDS011;6647;53.688;10.746;2022-07-19T01:49:23;7.57;;;5.70;;
13163;SDS011;6647;53.688;10.746;2022-07-19T01:50:44;7.95;;;5.70;;
13163;SDS011;6647;53.688;10.746;2022-07-19T01:52:05;6.70;;;5.53;;
13163;SDS011;6647;53.688;10.746;2022-07-19T01:53:26;6.80;;;5.50;;
13163;SDS011;6647;53.688;10.746;2022-07-19T01:54:47;6.90;;;5.00;;
13163;SDS011;6647;53.688;10.746;2022-07-19T01:56:08;10.15;;;6.38;;
13163;SDS011;6647;53.688;10.746;2022-07-19T01:57:28;9.25;;;6.28;;
13163;SDS011;6647;53.688;10.746;2022-07-19T01:58:50;6.55;;;5.20;;
13163;SDS011;6647;53.688;10.746;2022-07-19T02:00:11;7.47;;;5.90;;
13163;SDS011;6647;53.688;10.746;2022-07-19T02:01:32;7.63;;;5.30;;
13163;SDS011;6647;53.688;10.746;2022-07-19T02:02:53;8.18;;;6.25;;
13163;SDS011;6647;53.688;10.746;2022-07-19T02:04:14;7.63;;;5.95;;
13163;SDS011;6647;53.688;10.746;2022-07-19T02:05:35;6.75;;;5.93;;
13163;SDS011;6647;53.688;10.746;2022-07-19T02:06:56;7.80;;;5.50;;
13163;SDS011;6647;53.688;10.746;2022-07-19T02:08:17;8.15;;;5.75;;
13163;SDS011;6647;53.688;10.746;2022-07-19T02:09:38;7.30;;;5.93;;
13163;SDS011;6647;53.688;10.746;2022-07-19T02:10:59;8.35;;;5.75;;
13163;SDS011;6647;53.688;10.746;2022-07-19T02:12:20;7.45;;;6.05;;
13163;SDS011;6647;53.688;10.746;2022-07-19T02:13:41;6.55;;;5.25;;
13163;SDS011;6647;53.688;10.746;2022-07-19T02:15:02;8.25;;;6.10;;
13163;SDS011;6647;53.688;10.746;2022-07-19T02:16:23;8.50;;;5.25;;
13163;SDS011;6647;53.688;10.746;2022-07-19T02:17:44;6.60;;;5.90;;
13163;SDS011;6647;53.688;10.746;2022-07-19T02:19:05;5.93;;;5.25;;
13163;SDS011;6647;53.688;10.746;2022-07-19T02:20:27;7.82;;;5.82;;
13163;SDS011;6647;53.688;10.746;2022-07-19T02:21:48;7.15;;;5.10;;
13163;SDS011;6647;53.688;10.746;2022-07-19T02:23:09;8.40;;;5.60;;
13163;SDS011;6647;53.688;10.746;2022-07-19T02:24:30;7.70;;;5.88;;
13163;SDS011;6647;53.688;10.746;2022-07-19T02:25:50;6.00;;;5.40;;
13163;SDS011;6647;53.688;10.746;2022-07-19T02:27:11;5.68;;;4.85;;
13163;SDS011;6647;53.688;10.746;2022-07-19T02:28:32;6.78;;;5.88;;
13163;SDS011;6647;53.688;10.746;2022-07-19T02:29:53;8.90;;;5.93;;
13163;SDS011;6647;53.688;10.746;2022-07-19T02:31:14;8.27;;;5.88;;
13163;SDS011;6647;53.688;10.746;2022-07-19T02:32:35;6.60;;;5.40;;
13163;SDS011;6647;53.688;10.746;2022-07-19T02:33:56;7.18;;;6.07;;
13163;SDS011;6647;53.688;10.746;2022-07-19T02:35:17;8.25;;;6.15;;
13163;SDS011;6647;53.688;10.746;2022-07-19T02:36:38;7.82;;;6.45;;
13163;SDS011;6647;53.688;10.746;2022-07-19T02:37:59;8.50;;;6.03;;
13163;SDS011;6647;53.688;10.746;2022-07-19T02:39:20;6.43;;;5.55;;
13163;SDS011;6647;53.688;10.746;2022-07-19T02:40:41;6.95;;;5.70;;
13163;SDS011;6647;53.688;10.746;2022-07-19T02:42:02;9.13;;;4.95;;
13163;SDS011;6647;53.688;10.746;2022-07-19T02:43:23;6.57;;;5.82;;
13163;SDS011;6647;53.688;10.746;2022-07-19T02:44:44;6.20;;;5.22;;
13163;SDS011;6647;53.688;10.746;2022-07-19T02:46:05;7.25;;;4.97;;
13163;SDS011;6647;53.688;10.746;2022-07-19T02:47:26;7.55;;;5.60;;
13163;SDS011;6647;53.688;10.746;2022-07-19T02:48:47;7.32;;;5.10;;
13163;SDS011;6647;53.688;10.746;2022-07-19T02:50:08;9.45;;;5.90;;
13163;SDS011;6647;53.688;10.746;2022-07-19T02:51:29;6.85;;;5.85;;
13163;SDS011;6647;53.688;10.746;2022-07-19T02:52:49;8.85;;;5.50;;
13163;SDS011;6647;53.688;10.746;2022-07-19T02:54:10;6.47;;;5.20;;
13163;SDS011;6647;53.688;10.746;2022-07-19T02:55:31;7.53;;;5.80;;
13163;SDS011;6647;53.688;10.746;2022-07-19T02:56:52;6.30;;;5.70;;
13163;SDS011;6647;53.688;10.746;2022-07-19T02:58:13;7.82;;;5.80;;
13163;SDS011;6647;53.688;10.746;2022-07-19T02:59:34;8.38;;;4.88;;
13163;SDS011;6647;53.688;10.746;2022-07-19T03:00:55;6.95;;;5.25;;
13163;SDS011;6647;53.688;10.746;2022-07-19T03:02:16;7.18;;;5.40;;
13163;SDS011;6647;53.688;10.746;2022-07-19T03:03:37;8.18;;;5.80;;
13163;SDS011;6647;53.688;10.746;2022-07-19T03:05:04;10.93;;;5.50;;
13163;SDS011;6647;53.688;10.746;2022-07-19T03:06:25;6.60;;;5.47;;
13163;SDS011;6647;53.688;10.746;2022-07-19T03:07:46;5.90;;;5.05;;
13163;SDS011;6647;53.688;10.746;2022-07-19T03:09:07;6.45;;;5.43;;
13163;SDS011;6647;53.688;10.746;2022-07-19T03:10:28;8.48;;;5.78;;
13163;SDS011;6647;53.688;10.746;2022-07-19T03:11:48;6.32;;;5.72;;
13163;SDS011;6647;53.688;10.746;2022-07-19T03:13:11;7.60;;;5.75;;
13163;SDS011;6647;53.688;10.746;2022-07-19T03:14:32;7.03;;;5.30;;
13163;SDS011;6647;53.688;10.746;2022-07-19T03:15:53;6.63;;;5.05;;
13163;SDS011;6647;53.688;10.746;2022-07-19T03:17:14;6.75;;;5.30;;
13163;SDS011;6647;53.688;10.746;2022-07-19T03:18:35;6.97;;;6.03;;
13163;SDS011;6647;53.688;10.746;2022-07-19T03:19:56;6.55;;;5.47;;
13163;SDS011;6647;53.688;10.746;2022-07-19T03:21:17;6.93;;;5.60;;
13163;SDS011;6647;53.688;10.746;2022-07-19T03:22:38;7.25;;;5.50;;
13163;SDS011;6647;53.688;10.746;2022-07-19T03:23:59;8.65;;;6.00;;
13163;SDS011;6647;53.688;10.746;2022-07-19T03:25:20;6.70;;;5.70;;
13163;SDS011;6647;53.688;10.746;2022-07-19T03:26:41;7.60;;;5.88;;
13163;SDS011;6647;53.688;10.746;2022-07-19T03:28:02;6.75;;;5.32;;
13163;SDS011;6647;53.688;10.746;2022-07-19T03:29:23;9.68;;;6.05;;
13163;SDS011;6647;53.688;10.746;2022-07-19T03:30:44;7.72;;;5.60;;
13163;SDS011;6647;53.688;10.746;2022-07-19T03:32:05;6.78;;;5.85;;
13163;SDS011;6647;53.688;10.746;2022-07-19T03:33:26;7.65;;;5.82;;
13163;SDS011;6647;53.688;10.746;2022-07-19T03:34:47;6.82;;;5.57;;
13163;SDS011;6647;53.688;10.746;2022-07-19T03:36:07;8.65;;;5.88;;
13163;SDS011;6647;53.688;10.746;2022-07-19T03:37:28;8.15;;;6.35;;
13163;SDS011;6647;53.688;10.746;2022-07-19T03:38:49;10.30;;;6.00;;
13163;SDS011;6647;53.688;10.746;2022-07-19T03:40:10;7.13;;;5.78;;
13163;SDS011;6647;53.688;10.746;2022-07-19T03:41:31;7.65;;;5.60;;
13163;SDS011;6647;53.688;10.746;2022-07-19T03:42:53;10.43;;;5.95;;
13163;SDS011;6647;53.688;10.746;2022-07-19T03:44:13;6.65;;;5.95;;
13163;SDS011;6647;53.688;10.746;2022-07-19T03:45:34;8.20;;;6.13;;
13163;SDS011;6647;53.688;10.746;2022-07-19T03:46:55;6.55;;;5.65;;
13163;SDS011;6647;53.688;10.746;2022-07-19T03:48:16;7.20;;;5.55;;
13163;SDS011;6647;53.688;10.746;2022-07-19T03:49:37;6.32;;;5.45;;
13163;SDS011;6647;53.688;10.746;2022-07-19T03:50:58;6.50;;;5.55;;
13163;SDS011;6647;53.688;10.746;2022-07-19T03:52:19;7.78;;;5.15;;
13163;SDS011;6647;53.688;10.746;2022-07-19T03:53:40;10.45;;;5.70;;
13163;SDS011;6647;53.688;10.746;2022-07-19T03:55:01;8.98;;;5.55;;
13163;SDS011;6647;53.688;10.746;2022-07-19T03:56:22;6.97;;;6.05;;
13163;SDS011;6647;53.688;10.746;2022-07-19T03:57:43;7.32;;;5.47;;
13163;SDS011;6647;53.688;10.746;2022-07-19T03:59:04;7.07;;;5.65;;
13163;SDS011;6647;53.688;10.746;2022-07-19T04:00:25;7.45;;;5.78;;
13163;SDS011;6647;53.688;10.746;2022-07-19T04:01:45;6.47;;;5.00;;
13163;SDS011;6647;53.688;10.746;2022-07-19T04:03:06;7.05;;;5.40;;
13163;SDS011;6647;53.688;10.746;2022-07-19T04:04:27;9.32;;;6.03;;
13163;SDS011;6647;53.688;10.746;2022-07-19T04:05:48;6.30;;;4.88;;
13163;SDS011;6647;53.688;10.746;2022-07-19T04:07:09;7.82;;;5.70;;
13163;SDS011;6647;53.688;10.746;2022-07-19T04:08:30;6.20;;;5.28;;
13163;SDS011;6647;53.688;10.746;2022-07-19T04:09:51;7.43;;;5.93;;
13163;SDS011;6647;53.688;10.746;2022-07-19T04:11:11;9.43;;;6.07;;
13163;SDS011;6647;53.688;10.746;2022-07-19T04:12:33;8.68;;;5.68;;
13163;SDS011;6647;53.688;10.746;2022-07-19T04:13:54;9.18;;;5.90;;
13163;SDS011;6647;53.688;10.746;2022-07-19T04:15:15;44.60;;;16.90;;
13163;SDS011;6647;53.688;10.746;2022-07-19T04:16:36;81.50;;;30.05;;
13163;SDS011;6647;53.688;10.746;2022-07-19T04:17:57;104.32;;;35.83;;
13163;SDS011;6647;53.688;10.746;2022-07-19T04:19:17;96.25;;;33.85;;
13163;SDS011;6647;53.688;10.746;2022-07-19T04:20:38;71.35;;;25.45;;
13163;SDS011;6647;53.688;10.746;2022-07-19T04:21:59;50.70;;;20.25;;
13163;SDS011;6647;53.688;10.746;2022-07-19T04:23:20;43.17;;;16.95;;
13163;SDS011;6647;53.688;10.746;2022-07-19T04:24:41;31.52;;;13.10;;
13163;SDS011;6647;53.688;10.746;2022-07-19T04:26:02;21.33;;;10.45;;
13163;SDS011;6647;53.688;10.746;2022-07-19T04:27:23;23.00;;;9.90;;
13163;SDS011;6647;53.688;10.746;2022-07-19T04:28:44;16.90;;;9.10;;
13163;SDS011;6647;53.688;10.746;2022-07-19T04:30:05;11.27;;;7.57;;
13163;SDS011;6647;53.688;10.746;2022-07-19T04:31:26;10.48;;;6.82;;
13163;SDS011;6647;53.688;10.746;2022-07-19T04:32:47;8.70;;;6.18;;
13163;SDS011;6647;53.688;10.746;2022-07-19T04:34:08;12.07;;;6.68;;
13163;SDS011;6647;53.688;10.746;2022-07-19T04:35:29;9.30;;;6.90;;
13163;SDS011;6647;53.688;10.746;2022-07-19T04:36:49;9.43;;;6.45;;
13163;SDS011;6647;53.688;10.746;2022-07-19T04:38:10;11.18;;;7.20;;
13163;SDS011;6647;53.688;10.746;2022-07-19T04:39:31;9.55;;;7.00;;
13163;SDS011;6647;53.688;10.746;2022-07-19T04:40:52;6.93;;;5.97;;
13163;SDS011;6647;53.688;10.746;2022-07-19T04:42:13;7.55;;;6.07;;
13163;SDS011;6647;53.688;10.746;2022-07-19T04:43:34;16.95;;;7.60;;
13163;SDS011;6647;53.688;10.746;2022-07-19T04:44:55;8.73;;;6.25;;
13163;SDS011;6647;53.688;10.746;2022-07-19T04:46:16;7.85;;;6.20;;
13163;SDS011;6647;53.688;10.746;2022-07-19T04:47:37;11.07;;;7.20;;
13163;SDS011;6647;53.688;10.746;2022-07-19T04:48:57;9.85;;;6.88;;
13163;SDS011;6647;53.688;10.746;2022-07-19T04:50:18;9.43;;;6.93;;
13163;SDS011;6647;53.688;10.746;2022-07-19T04:51:39;8.52;;;6.20;;
13163;SDS011;6647;53.688;10.746;2022-07-19T04:53:00;8.50;;;6.38;;
13163;SDS011;6647;53.688;10.746;2022-07-19T04:54:21;9.88;;;6.57;;
13163;SDS011;6647;53.688;10.746;2022-07-19T04:55:42;8.90;;;7.32;;
13163;SDS011;6647;53.688;10.746;2022-07-19T04:57:03;8.80;;;6.72;;
13163;SDS011;6647;53.688;10.746;2022-07-19T04:58:24;10.75;;;7.03;;
13163;SDS011;6647;53.688;10.746;2022-07-19T04:59:45;8.48;;;6.55;;
13163;SDS011;6647;53.688;10.746;2022-07-19T05:01:05;8.60;;;6.35;;
13163;SDS011;6647;53.688;10.746;2022-07-19T05:02:26;10.10;;;6.90;;
13163;SDS011;6647;53.688;10.746;2022-07-19T05:03:47;9.85;;;7.35;;
13163;SDS011;6647;53.688;10.746;2022-07-19T05:05:08;7.10;;;5.93;;
13163;SDS011;6647;53.688;10.746;2022-07-19T05:06:29;10.45;;;7.35;;
13163;SDS011;6647;53.688;10.746;2022-07-19T05:07:50;10.95;;;7.10;;
13163;SDS011;6647;53.688;10.746;2022-07-19T05:09:11;8.68;;;6.65;;
13163;SDS011;6647;53.688;10.746;2022-07-19T05:10:32;11.25;;;7.05;;
13163;SDS011;6647;53.688;10.746;2022-07-19T05:11:53;9.27;;;6.95;;
13163;SDS011;6647;53.688;10.746;2022-07-19T05:13:15;11.55;;;7.10;;
13163;SDS011;6647;53.688;10.746;2022-07-19T05:14:35;9.65;;;6.85;;
13163;SDS011;6647;53.688;10.746;2022-07-19T05:15:56;8.10;;;7.30;;
13163;SDS011;6647;53.688;10.746;2022-07-19T05:17:17;9.23;;;7.05;;
13163;SDS011;6647;53.688;10.746;2022-07-19T05:18:38;13.90;;;7.82;;
13163;SDS011;6647;53.688;10.746;2022-07-19T05:19:59;8.82;;;7.43;;
13163;SDS011;6647;53.688;10.746;2022-07-19T05:21:20;8.95;;;6.97;;
13163;SDS011;6647;53.688;10.746;2022-07-19T05:22:41;8.98;;;6.90;;
13163;SDS011;6647;53.688;10.746;2022-07-19T05:24:05;9.30;;;6.95;;
13163;SDS011;6647;53.688;10.746;2022-07-19T05:25:26;9.00;;;7.20;;
13163;SDS011;6647;53.688;10.746;2022-07-19T05:26:47;9.75;;;6.45;;
13163;SDS011;6647;53.688;10.746;2022-07-19T05:28:08;10.05;;;7.03;;
13163;SDS011;6647;53.688;10.746;2022-07-19T05:29:29;9.48;;;7.05;;
13163;SDS011;6647;53.688;10.746;2022-07-19T05:30:50;9.82;;;6.70;;
13163;SDS011;6647;53.688;10.746;2022-07-19T05:32:10;10.02;;;7.45;;
13163;SDS011;6647;53.688;10.746;2022-07-19T05:33:31;9.60;;;7.38;;
13163;SDS011;6647;53.688;10.746;2022-07-19T05:34:52;14.40;;;6.32;;
13163;SDS011;6647;53.688;10.746;2022-07-19T05:36:13;8.65;;;6.60;;
13163;SDS011;6647;53.688;10.746;2022-07-19T05:37:34;8.23;;;7.03;;
13163;SDS011;6647;53.688;10.746;2022-07-19T05:38:55;9.40;;;6.68;;
13163;SDS011;6647;53.688;10.746;2022-07-19T05:40:16;9.68;;;6.78;;
13163;SDS011;6647;53.688;10.746;2022-07-19T05:41:37;10.25;;;7.35;;
13163;SDS011;6647;53.688;10.746;2022-07-19T05:42:58;9.25;;;6.90;;
13163;SDS011;6647;53.688;10.746;2022-07-19T05:44:18;8.15;;;6.75;;
13163;SDS011;6647;53.688;10.746;2022-07-19T05:45:39;8.35;;;6.43;;
13163;SDS011;6647;53.688;10.746;2022-07-19T05:47:00;9.10;;;6.97;;
13163;SDS011;6647;53.688;10.746;2022-07-19T05:48:22;9.50;;;6.95;;
13163;SDS011;6647;53.688;10.746;2022-07-19T05:49:43;8.93;;;7.05;;
13163;SDS011;6647;53.688;10.746;2022-07-19T05:51:04;8.95;;;6.95;;
13163;SDS011;6647;53.688;10.746;2022-07-19T05:52:25;8.93;;;6.90;;
13163;SDS011;6647;53.688;10.746;2022-07-19T05:53:46;11.77;;;7.80;;
13163;SDS011;6647;53.688;10.746;2022-07-19T05:55:07;10.55;;;8.70;;
13163;SDS011;6647;53.688;10.746;2022-07-19T05:56:28;13.40;;;8.80;;
13163;SDS011;6647;53.688;10.746;2022-07-19T05:57:49;12.50;;;8.60;;
13163;SDS011;6647;53.688;10.746;2022-07-19T05:59:10;14.18;;;7.95;;
13163;SDS011;6647;53.688;10.746;2022-07-19T06:00:31;11.18;;;7.80;;
13163;SDS011;6647;53.688;10.746;2022-07-19T06:01:52;10.57;;;6.78;;
13163;SDS011;6647;53.688;10.746;2022-07-19T06:03:13;9.70;;;7.53;;
13163;SDS011;6647;53.688;10.746;2022-07-19T06:04:34;9.98;;;7.75;;
13163;SDS011;6647;53.688;10.746;2022-07-19T06:05:55;9.75;;;7.50;;
13163;SDS011;6647;53.688;10.746;2022-07-19T06:07:16;10.73;;;7.43;;
13163;SDS011;6647;53.688;10.746;2022-07-19T06:08:37;9.07;;;7.50;;
13163;SDS011;6647;53.688;10.746;2022-07-19T06:09:57;11.55;;;7.00;;
13163;SDS011;6647;53.688;10.746;2022-07-19T06:11:18;10.15;;;7.75;;
13163;SDS011;6647;53.688;10.746;2022-07-19T06:12:39;11.50;;;7.38;;
13163;SDS011;6647;53.688;10.746;2022-07-19T06:14:00;9.40;;;7.75;;
13163;SDS011;6647;53.688;10.746;2022-07-19T06:15:21;10.82;;;7.50;;
13163;SDS011;6647;53.688;10.746;2022-07-19T06:16:42;8.50;;;6.30;;
13163;SDS011;6647;53.688;10.746;2022-07-19T06:18:03;7.90;;;6.50;;
13163;SDS011;6647;53.688;10.746;2022-07-19T06:19:24;9.48;;;6.68;;
13163;SDS011;6647;53.688;10.746;2022-07-19T06:20:46;11.88;;;7.63;;
13163;SDS011;6647;53.688;10.746;2022-07-19T06:22:07;9.68;;;6.55;;
13163;SDS011;6647;53.688;10.746;2022-07-19T06:23:28;8.30;;;6.82;;
13163;SDS011;6647;53.688;10.746;2022-07-19T06:24:49;9.73;;;7.20;;
13163;SDS011;6647;53.688;10.746;2022-07-19T06:26:11;12.70;;;7.47;;
13163;SDS011;6647;53.688;10.746;2022-07-19T06:27:32;9.80;;;6.97;;
13163;SDS011;6647;53.688;10.746;2022-07-19T06:28:53;9.93;;;6.90;;
13163;SDS011;6647;53.688;10.746;2022-07-19T06:30:14;9.88;;;7.15;;
13163;SDS011;6647;53.688;10.746;2022-07-19T06:31:35;10.70;;;6.53;;
13163;SDS011;6647;53.688;10.746;2022-07-19T06:32:56;11.67;;;6.73;;
13163;SDS011;6647;53.688;10.746;2022-07-19T06:34:17;9.67;;;6.33;;
13163;SDS011;6647;53.688;10.746;2022-07-19T06:35:39;10.27;;;5.80;;
13163;SDS011;6647;53.688;10.746;2022-07-19T06:37:00;11.40;;;6.67;;
13163;SDS011;6647;53.688;10.746;2022-07-19T06:38:21;8.73;;;6.93;;
13163;SDS011;6647;53.688;10.746;2022-07-19T06:39:42;8.82;;;5.88;;
13163;SDS011;6647;53.688;10.746;2022-07-19T06:41:03;10.48;;;6.95;;
13163;SDS011;6647;53.688;10.746;2022-07-19T06:42:24;9.53;;;6.97;;
13163;SDS011;6647;53.688;10.746;2022-07-19T06:43:45;8.73;;;6.53;;
13163;SDS011;6647;53.688;10.746;2022-07-19T06:45:06;12.57;;;7.23;;
13163;SDS011;6647;53.688;10.746;2022-07-19T06:46:27;11.73;;;7.40;;
13163;SDS011;6647;53.688;10.746;2022-07-19T06:47:48;12.43;;;6.80;;
13163;SDS011;6647;53.688;10.746;2022-07-19T06:49:11;8.47;;;6.03;;
13163;SDS011;6647;53.688;10.746;2022-07-19T06:50:32;15.43;;;7.30;;
13163;SDS011;6647;53.688;10.746;2022-07-19T06:51:53;9.87;;;6.00;;
13163;SDS011;6647;53.688;10.746;2022-07-19T06:53:14;11.10;;;7.03;;
13163;SDS011;6647;53.688;10.746;2022-07-19T06:54:35;11.00;;;6.37;;
13163;SDS011;6647;53.688;10.746;2022-07-19T06:55:56;9.87;;;6.87;;
13163;SDS011;6647;53.688;10.746;2022-07-19T06:57:17;14.83;;;6.67;;
13163;SDS011;6647;53.688;10.746;2022-07-19T06:58:38;6.37;;;5.70;;
13163;SDS011;6647;53.688;10.746;2022-07-19T06:59:58;11.30;;;6.50;;
13163;SDS011;6647;53.688;10.746;2022-07-19T07:01:19;7.87;;;5.97;;
13163;SDS011;6647;53.688;10.746;2022-07-19T07:02:40;7.63;;;6.30;;
13163;SDS011;6647;53.688;10.746;2022-07-19T07:04:01;9.37;;;6.47;;
13163;SDS011;6647;53.688;10.746;2022-07-19T07:05:22;11.60;;;7.00;;
13163;SDS011;6647;53.688;10.746;2022-07-19T07:06:43;10.40;;;6.60;;
13163;SDS011;6647;53.688;10.746;2022-07-19T07:08:04;10.17;;;6.93;;
13163;SDS011;6647;53.688;10.746;2022-07-19T07:09:25;7.73;;;6.00;;
13163;SDS011;6647;53.688;10.746;2022-07-19T07:10:46;9.90;;;6.77;;
13163;SDS011;6647;53.688;10.746;2022-07-19T07:12:07;13.83;;;7.30;;
13163;SDS011;6647;53.688;10.746;2022-07-19T07:13:29;9.60;;;6.80;;
13163;SDS011;6647;53.688;10.746;2022-07-19T07:14:49;12.30;;;6.07;;
13163;SDS011;6647;53.688;10.746;2022-07-19T07:16:10;8.87;;;6.83;;
13163;SDS011;6647;53.688;10.746;2022-07-19T07:17:31;10.90;;;7.10;;
13163;SDS011;6647;53.688;10.746;2022-07-19T07:18:52;9.13;;;6.33;;
13163;SDS011;6647;53.688;10.746;2022-07-19T07:20:13;8.57;;;6.30;;
13163;SDS011;6647;53.688;10.746;2022-07-19T07:21:34;9.80;;;6.83;;
13163;SDS011;6647;53.688;10.746;2022-07-19T07:22:55;11.20;;;7.07;;
13163;SDS011;6647;53.688;10.746;2022-07-19T07:24:16;9.40;;;5.80;;
13163;SDS011;6647;53.688;10.746;2022-07-19T07:25:37;10.13;;;6.43;;
13163;SDS011;6647;53.688;10.746;2022-07-19T07:26:58;12.63;;;6.10;;
13163;SDS011;6647;53.688;10.746;2022-07-19T07:28:21;9.70;;;6.93;;
13163;SDS011;6647;53.688;10.746;2022-07-19T07:29:42;11.17;;;6.40;;
13163;SDS011;6647;53.688;10.746;2022-07-19T07:31:03;7.60;;;6.10;;
13163;SDS011;6647;53.688;10.746;2022-07-19T07:32:24;8.90;;;6.10;;
13163;SDS011;6647;53.688;10.746;2022-07-19T07:33:47;8.10;;;5.80;;
13163;SDS011;6647;53.688;10.746;2022-07-19T07:35:08;9.47;;;6.27;;
13163;SDS011;6647;53.688;10.746;2022-07-19T07:36:28;11.60;;;5.60;;
13163;SDS011;6647;53.688;10.746;2022-07-19T07:37:49;12.83;;;6.60;;
13163;SDS011;6647;53.688;10.746;2022-07-19T07:39:11;7.03;;;6.10;;
13163;SDS011;6647;53.688;10.746;2022-07-19T07:40:33;7.13;;;5.87;;
13163;SDS011;6647;53.688;10.746;2022-07-19T07:41:54;9.10;;;7.63;;
13163;SDS011;6647;53.688;10.746;2022-07-19T07:43:14;11.37;;;6.83;;
13163;SDS011;6647;53.688;10.746;2022-07-19T07:44:35;7.87;;;5.60;;
13163;SDS011;6647;53.688;10.746;2022-07-19T07:45:56;8.17;;;6.40;;
13163;SDS011;6647;53.688;10.746;2022-07-19T07:47:17;8.00;;;7.10;;
13163;SDS011;6647;53.688;10.746;2022-07-19T07:48:39;7.07;;;5.70;;
13163;SDS011;6647;53.688;10.746;2022-07-19T07:49:59;7.27;;;6.10;;
13163;SDS011;6647;53.688;10.746;2022-07-19T07:51:20;8.10;;;5.60;;
13163;SDS011;6647;53.688;10.746;2022-07-19T07:52:41;9.27;;;5.77;;
13163;SDS011;6647;53.688;10.746;2022-07-19T07:54:02;7.13;;;6.10;;
13163;SDS011;6647;53.688;10.746;2022-07-19T07:55:23;10.70;;;6.67;;
13163;SDS011;6647;53.688;10.746;2022-07-19T07:56:44;14.97;;;6.20;;
13163;SDS011;6647;53.688;10.746;2022-07-19T07:58:09;11.90;;;6.23;;
13163;SDS011;6647;53.688;10.746;2022-07-19T07:59:30;9.70;;;6.37;;
13163;SDS011;6647;53.688;10.746;2022-07-19T08:00:51;7.50;;;6.30;;
13163;SDS011;6647;53.688;10.746;2022-07-19T08:02:12;10.40;;;6.33;;
13163;SDS011;6647;53.688;10.746;2022-07-19T08:03:33;8.40;;;6.47;;
13163;SDS011;6647;53.688;10.746;2022-07-19T08:04:54;12.27;;;6.73;;
13163;SDS011;6647;53.688;10.746;2022-07-19T08:06:15;9.73;;;6.47;;